createdAt,value
2023-10-18T00:00:34.537Z,10.07
2023-10-18T00:03:05.454Z,9.50
2023-10-18T00:05:32.827Z,10.90
2023-10-18T00:08:00.470Z,10.47
2023-10-18T00:10:31.554Z,11.00
2023-10-18T00:13:00.062Z,10.80
2023-10-18T00:15:27.038Z,11.27
2023-10-18T00:17:54.424Z,11.03
2023-10-18T00:20:24.856Z,11.73
2023-10-18T00:22:52.170Z,12.27
2023-10-18T00:25:21.454Z,11.40
2023-10-18T00:27:49.223Z,11.10
2023-10-18T00:30:21.000Z,11.30
2023-10-18T00:32:48.282Z,12.03
2023-10-18T00:35:23.087Z,12.20
2023-10-18T00:37:55.893Z,11.10
2023-10-18T00:40:29.155Z,11.30
2023-10-18T00:43:21.276Z,11.37
2023-10-18T00:45:53.284Z,11.47
2023-10-18T00:48:26.089Z,13.37
2023-10-18T00:50:54.358Z,13.50
2023-10-18T00:53:23.990Z,13.47
2023-10-18T00:56:05.984Z,12.93
2023-10-18T00:58:35.157Z,11.80
2023-10-18T01:01:10.123Z,11.67
2023-10-18T01:03:44.744Z,11.70
2023-10-18T01:06:18.250Z,11.63
2023-10-18T01:08:48.743Z,10.20
2023-10-18T01:11:20.112Z,13.43
2023-10-18T01:13:48.987Z,11.50
2023-10-18T01:16:23.064Z,10.53
2023-10-18T01:18:53.355Z,10.93
2023-10-18T01:21:21.710Z,10.30
2023-10-18T01:23:55.189Z,11.07
2023-10-18T01:26:26.459Z,11.10
2023-10-18T01:28:55.277Z,11.23
2023-10-18T01:31:23.351Z,11.07
2023-10-18T01:33:52.350Z,11.77
2023-10-18T01:36:21.948Z,11.97
2023-10-18T01:38:51.020Z,11.30
2023-10-18T01:41:27.151Z,12.03
2023-10-18T01:44:07.843Z,10.93
2023-10-18T01:46:50.280Z,12.63
2023-10-18T01:49:26.057Z,11.90
2023-10-18T01:51:55.789Z,11.13
2023-10-18T01:54:29.228Z,11.13
2023-10-18T01:56:58.855Z,11.50
2023-10-18T01:59:29.048Z,10.93
2023-10-18T02:01:58.752Z,11.13
2023-10-18T02:04:40.094Z,10.67
2023-10-18T02:07:19.047Z,11.00
2023-10-18T02:09:59.708Z,10.80
2023-10-18T02:12:28.648Z,10.13
2023-10-18T02:14:59.508Z,11.00
2023-10-18T02:17:28.401Z,10.00
2023-10-18T02:19:55.546Z,10.20
2023-10-18T02:22:22.422Z,10.13
2023-10-18T02:24:51.849Z,11.30
2023-10-18T02:27:20.838Z,10.87
2023-10-18T02:29:48.075Z,9.33
2023-10-18T02:32:33.826Z,10.67
2023-10-18T02:35:02.074Z,9.77
2023-10-18T02:37:29.002Z,9.97
2023-10-18T02:40:09.033Z,9.50
2023-10-18T02:42:36.505Z,10.17
2023-10-18T02:45:08.613Z,10.13
2023-10-18T02:47:35.758Z,10.60
2023-10-18T02:50:02.705Z,10.03
2023-10-18T02:52:31.997Z,9.33
2023-10-18T02:54:58.899Z,9.10
2023-10-18T02:57:25.988Z,9.53
2023-10-18T02:59:52.955Z,9.60
2023-10-18T03:02:25.379Z,10.50
2023-10-18T03:04:54.111Z,11.07
2023-10-18T03:07:23.377Z,9.83
2023-10-18T03:09:53.277Z,9.47
2023-10-18T03:12:23.319Z,8.80
2023-10-18T03:14:56.655Z,8.93
2023-10-18T03:17:30.657Z,10.00
2023-10-18T03:19:58.217Z,9.97
2023-10-18T03:22:32.443Z,8.83
2023-10-18T03:25:00.986Z,8.57
2023-10-18T03:27:32.364Z,9.63
2023-10-18T03:29:59.727Z,10.40
2023-10-18T03:32:28.362Z,10.57
2023-10-18T03:34:55.593Z,9.77
2023-10-18T03:37:22.788Z,10.53
2023-10-18T03:39:56.591Z,10.27
2023-10-18T03:42:33.460Z,11.77
2023-10-18T03:45:14.995Z,10.57
2023-10-18T03:47:43.075Z,10.13
2023-10-18T03:50:16.591Z,9.43
2023-10-18T03:52:46.626Z,9.03
2023-10-18T03:55:33.705Z,9.77
2023-10-18T03:58:02.355Z,10.13
2023-10-18T04:00:29.713Z,9.90
2023-10-18T04:03:12.056Z,10.83
2023-10-18T04:05:44.668Z,10.50
2023-10-18T04:08:16.092Z,9.50
2023-10-18T04:10:48.023Z,9.47
2023-10-18T04:13:15.744Z,8.97
2023-10-18T04:16:01.366Z,10.87
2023-10-18T04:18:31.046Z,11.50
2023-10-18T04:21:00.663Z,11.43
2023-10-18T04:23:27.858Z,9.50
2023-10-18T04:25:59.814Z,10.00
2023-10-18T04:28:27.616Z,11.67
2023-10-18T04:31:05.521Z,11.37
2023-10-18T04:33:50.306Z,11.00
2023-10-18T04:36:21.754Z,10.73
2023-10-18T04:38:49.564Z,10.93
2023-10-18T04:41:23.348Z,10.27
2023-10-18T04:43:52.080Z,9.73
2023-10-18T04:46:23.740Z,9.77
2023-10-18T04:48:50.602Z,10.87
2023-10-18T04:51:33.544Z,10.17
2023-10-18T04:54:31.284Z,10.60
2023-10-18T04:56:58.085Z,10.20
2023-10-18T04:59:31.315Z,9.70
2023-10-18T05:01:59.386Z,9.83
2023-10-18T05:04:33.329Z,9.63
2023-10-18T05:07:03.153Z,8.43
2023-10-18T05:09:45.212Z,9.20
2023-10-18T05:12:24.518Z,8.93
2023-10-18T05:15:08.039Z,7.93
2023-10-18T05:17:37.186Z,8.33
2023-10-18T05:20:19.477Z,8.90
2023-10-18T05:22:49.392Z,8.70
2023-10-18T05:25:23.379Z,9.00
2023-10-18T05:28:01.216Z,9.37
2023-10-18T05:30:49.688Z,9.03
2023-10-18T05:33:31.373Z,8.40
2023-10-18T05:36:23.511Z,9.00
2023-10-18T05:38:52.866Z,9.70
2023-10-18T05:41:29.636Z,10.50
2023-10-18T05:44:00.648Z,10.83
2023-10-18T05:46:35.609Z,10.23
2023-10-18T05:49:03.031Z,10.33
2023-10-18T05:51:39.505Z,10.07
2023-10-18T05:54:07.527Z,10.93
2023-10-18T05:56:34.991Z,10.50
2023-10-18T05:59:21.466Z,11.20
2023-10-18T06:01:56.159Z,10.27
2023-10-18T06:04:26.116Z,10.27
2023-10-18T06:06:56.632Z,10.13
2023-10-18T06:09:49.981Z,9.73
2023-10-18T06:12:43.493Z,9.67
2023-10-18T06:15:16.633Z,9.27
2023-10-18T06:17:47.572Z,9.10
2023-10-18T06:20:25.977Z,7.73
2023-10-18T06:23:08.281Z,5.43
2023-10-18T06:25:40.032Z,5.73
2023-10-18T06:28:08.726Z,6.10
2023-10-18T06:30:42.065Z,5.83
2023-10-18T06:33:10.519Z,5.60
2023-10-18T06:35:44.432Z,5.97
2023-10-18T06:38:18.318Z,5.63
2023-10-18T06:41:04.578Z,6.00
2023-10-18T06:43:33.723Z,5.27
2023-10-18T06:46:01.104Z,5.27
2023-10-18T06:48:29.789Z,5.83
2023-10-18T06:50:56.975Z,5.17
2023-10-18T06:53:23.936Z,5.20
2023-10-18T06:56:00.875Z,5.40
2023-10-18T06:58:30.169Z,5.00
2023-10-18T07:01:02.253Z,5.30
2023-10-18T07:03:29.324Z,4.23
2023-10-18T07:06:05.308Z,8.63
2023-10-18T07:08:41.393Z,7.27
2023-10-18T07:11:22.115Z,5.27
2023-10-18T07:13:52.061Z,5.80
2023-10-18T07:16:40.693Z,7.13
2023-10-18T07:19:07.829Z,5.67
2023-10-18T07:21:35.129Z,5.40
2023-10-18T07:24:10.528Z,5.97
2023-10-18T07:26:41.636Z,6.20
2023-10-18T07:29:08.636Z,6.30
2023-10-18T07:31:39.922Z,6.30
2023-10-18T07:34:09.997Z,6.30
2023-10-18T07:36:39.909Z,5.47
2023-10-18T07:39:07.674Z,6.20
2023-10-18T07:41:37.351Z,6.33
2023-10-18T07:44:07.518Z,7.50
2023-10-18T07:46:40.984Z,7.60
2023-10-18T07:49:16.500Z,8.07
2023-10-18T07:51:57.721Z,6.87
2023-10-18T07:54:25.360Z,5.97
2023-10-18T07:56:54.245Z,5.77
2023-10-18T07:59:34.125Z,6.10
2023-10-18T08:02:20.903Z,6.77
2023-10-18T08:04:52.142Z,6.50
2023-10-18T08:07:23.309Z,5.73
2023-10-18T08:09:52.530Z,5.73
2023-10-18T08:12:31.773Z,5.60
2023-10-18T08:14:59.141Z,5.77
2023-10-18T08:17:31.934Z,5.80
2023-10-18T08:20:18.577Z,6.00
2023-10-18T08:22:46.019Z,5.50
2023-10-18T08:25:23.051Z,5.07
2023-10-18T08:27:53.738Z,5.40
2023-10-18T08:30:44.283Z,5.43
2023-10-18T08:33:12.622Z,5.70
2023-10-18T08:35:39.539Z,5.67
2023-10-18T08:38:06.341Z,5.67
2023-10-18T08:40:36.148Z,5.30
2023-10-18T08:43:33.820Z,5.60
2023-10-18T08:46:06.569Z,5.93
2023-10-18T08:48:39.484Z,6.00
2023-10-18T08:51:07.945Z,5.67
2023-10-18T08:53:42.349Z,5.27
2023-10-18T08:56:10.204Z,5.77
2023-10-18T08:58:38.878Z,6.33
2023-10-18T09:01:07.173Z,5.90
2023-10-18T09:03:37.240Z,5.90
2023-10-18T09:06:05.927Z,6.03
2023-10-18T09:08:59.015Z,5.60
2023-10-18T09:11:29.027Z,5.90
2023-10-18T09:14:09.128Z,5.87
2023-10-18T09:16:39.079Z,5.20
2023-10-18T09:19:09.134Z,6.20
2023-10-18T09:21:45.353Z,5.87
2023-10-18T09:24:12.972Z,6.00
2023-10-18T09:26:43.308Z,5.83
2023-10-18T09:29:11.722Z,5.40
2023-10-18T09:32:03.675Z,5.83
2023-10-18T09:34:40.057Z,5.87
2023-10-18T09:37:12.553Z,5.77
2023-10-18T09:39:39.919Z,5.70
2023-10-18T09:42:08.258Z,5.30
2023-10-18T09:44:35.176Z,5.43
2023-10-18T09:47:02.959Z,5.53
2023-10-18T09:49:32.406Z,6.10
2023-10-18T09:52:04.710Z,6.47
2023-10-18T09:54:37.945Z,6.00
2023-10-18T09:57:07.857Z,6.27
2023-10-18T09:59:38.605Z,5.70
2023-10-18T10:02:10.715Z,5.80
2023-10-18T10:04:39.095Z,5.33
2023-10-18T10:07:25.007Z,5.47
2023-10-18T10:09:55.056Z,6.00
2023-10-18T10:12:28.509Z,5.73
2023-10-18T10:14:55.586Z,5.33
2023-10-18T10:17:29.987Z,5.23
2023-10-18T10:20:16.384Z,5.33
2023-10-18T10:22:46.151Z,5.00
2023-10-18T10:25:40.056Z,4.97
2023-10-18T10:28:54.784Z,4.37
2023-10-18T10:31:24.807Z,4.83
2023-10-18T10:34:07.691Z,5.03
2023-10-18T10:36:38.712Z,4.60
2023-10-18T10:39:13.854Z,4.70
2023-10-18T10:41:41.404Z,4.90
2023-10-18T10:44:09.624Z,4.17
2023-10-18T10:46:38.999Z,3.90
2023-10-18T10:50:00.752Z,4.53
2023-10-18T10:52:32.844Z,3.90
2023-10-18T10:55:29.617Z,4.30
2023-10-18T10:57:56.734Z,4.57
2023-10-18T11:00:38.569Z,5.23
2023-10-18T11:03:28.970Z,5.00
2023-10-18T11:05:58.311Z,4.10
2023-10-18T11:08:28.225Z,4.60
2023-10-18T11:10:59.312Z,4.63
2023-10-18T11:13:27.103Z,3.60
2023-10-18T11:15:54.552Z,4.50
2023-10-18T11:18:21.645Z,4.67
2023-10-18T11:20:50.571Z,5.00
2023-10-18T11:23:17.752Z,5.10
2023-10-18T11:25:44.511Z,4.00
2023-10-18T11:28:23.010Z,4.40
2023-10-18T11:30:51.845Z,4.57
2023-10-18T11:33:19.237Z,4.50
2023-10-18T11:35:55.418Z,4.10
2023-10-18T11:38:23.268Z,3.93
2023-10-18T11:40:51.860Z,3.80
2023-10-18T11:43:28.782Z,3.70
2023-10-18T11:46:06.882Z,4.13
2023-10-18T11:48:35.984Z,3.70
2023-10-18T11:51:07.467Z,4.17
2023-10-18T11:53:36.341Z,4.40
2023-10-18T11:56:10.925Z,4.07
2023-10-18T11:58:38.482Z,4.20
2023-10-18T12:01:18.680Z,3.80
2023-10-18T12:03:48.116Z,3.30
2023-10-18T12:06:15.125Z,3.23
2023-10-18T12:09:09.121Z,3.00
2023-10-18T12:11:36.398Z,2.90
2023-10-18T12:14:05.511Z,3.27
2023-10-18T12:16:35.361Z,2.70
2023-10-18T12:19:02.355Z,3.00
2023-10-18T12:21:31.980Z,3.20
2023-10-18T12:23:59.187Z,3.70
2023-10-18T12:26:26.269Z,3.70
2023-10-18T12:28:53.677Z,3.50
2023-10-18T12:31:28.006Z,3.87
2023-10-18T12:34:01.853Z,3.70
2023-10-18T12:36:39.377Z,3.73
2023-10-18T12:39:14.174Z,3.77
2023-10-18T12:41:41.177Z,3.57
2023-10-18T12:44:19.680Z,3.53
2023-10-18T12:46:47.066Z,3.30
2023-10-18T12:49:14.684Z,4.10
2023-10-18T12:51:50.589Z,3.70
2023-10-18T12:54:29.228Z,3.30
2023-10-18T12:57:11.949Z,3.03
2023-10-18T12:59:59.153Z,3.37
2023-10-18T13:02:44.851Z,4.50
2023-10-18T13:05:13.199Z,3.40
2023-10-18T13:07:44.493Z,3.37
2023-10-18T13:10:14.603Z,4.03
2023-10-18T13:12:54.483Z,4.63
2023-10-18T13:15:24.436Z,4.63
2023-10-18T13:17:52.963Z,4.53
2023-10-18T13:20:25.829Z,4.37
2023-10-18T13:22:57.017Z,4.10
2023-10-18T13:25:38.028Z,4.23
2023-10-18T13:28:07.704Z,5.10
2023-10-18T13:30:41.020Z,5.00
2023-10-18T13:33:17.471Z,4.70
2023-10-18T13:35:46.129Z,4.70
2023-10-18T13:38:16.798Z,4.47
2023-10-18T13:40:45.138Z,4.10
2023-10-18T13:43:14.471Z,4.50
2023-10-18T13:45:42.965Z,4.33
2023-10-18T13:48:13.116Z,4.17
2023-10-18T13:50:40.506Z,4.13
2023-10-18T13:53:13.383Z,4.33
2023-10-18T13:55:41.298Z,5.40
2023-10-18T13:58:08.228Z,4.37
2023-10-18T14:00:36.515Z,4.50
2023-10-18T14:03:03.783Z,3.97
2023-10-18T14:05:32.504Z,3.67
2023-10-18T14:07:59.794Z,7.03
2023-10-18T14:10:30.207Z,5.10
2023-10-18T14:12:57.448Z,4.97
2023-10-18T14:15:26.585Z,4.80
2023-10-18T14:17:53.655Z,3.83
2023-10-18T14:20:34.074Z,4.40
2023-10-18T14:23:01.626Z,4.17
2023-10-18T14:25:32.658Z,4.63
2023-10-18T14:27:59.460Z,4.70
2023-10-18T14:30:28.944Z,4.10
2023-10-18T14:33:00.395Z,3.77
2023-10-18T14:35:28.286Z,3.83
2023-10-18T14:37:55.168Z,4.20
2023-10-18T14:40:25.259Z,4.73
2023-10-18T14:42:53.621Z,6.30
2023-10-18T14:45:20.765Z,5.13
2023-10-18T14:47:49.611Z,5.10
2023-10-18T14:50:17.009Z,4.90
2023-10-18T14:52:44.165Z,5.40
2023-10-18T14:55:12.639Z,5.10
2023-10-18T14:57:41.676Z,5.17
2023-10-18T15:00:12.433Z,4.87
2023-10-18T15:02:43.179Z,4.67
2023-10-18T15:05:10.415Z,4.37
2023-10-18T15:07:40.773Z,4.47
2023-10-18T15:10:08.666Z,5.43
2023-10-18T15:12:37.437Z,6.33
2023-10-18T15:15:05.680Z,7.77
2023-10-18T15:17:33.360Z,9.40
2023-10-18T15:20:00.519Z,12.17
2023-10-18T15:22:27.338Z,9.63
2023-10-18T15:25:00.480Z,8.77
2023-10-18T15:27:27.429Z,8.57
2023-10-18T15:29:54.426Z,6.93
2023-10-18T15:32:21.338Z,6.40
2023-10-18T15:34:48.279Z,7.57
2023-10-18T15:37:15.462Z,12.17
2023-10-18T15:39:42.459Z,10.20
2023-10-18T15:42:12.427Z,7.47
2023-10-18T15:44:39.676Z,6.60
2023-10-18T15:47:09.568Z,6.53
2023-10-18T15:49:37.250Z,6.97
2023-10-18T15:52:08.131Z,5.90
2023-10-18T15:54:35.643Z,5.40
2023-10-18T15:57:03.034Z,5.67
2023-10-18T15:59:32.575Z,5.33
2023-10-18T16:02:00.061Z,5.13
2023-10-18T16:04:28.387Z,5.87
2023-10-18T16:06:57.010Z,5.67
2023-10-18T16:09:24.054Z,7.47
2023-10-18T16:11:50.926Z,6.57
2023-10-18T16:14:17.930Z,7.80
2023-10-18T16:16:44.885Z,8.17
2023-10-18T16:19:12.118Z,8.40
2023-10-18T16:21:42.092Z,7.90
2023-10-18T16:24:09.924Z,9.10
2023-10-18T16:26:36.771Z,10.87
2023-10-18T16:29:06.276Z,7.50
2023-10-18T16:31:34.398Z,7.97
2023-10-18T16:34:01.397Z,8.40
2023-10-18T16:36:28.408Z,8.40
2023-10-18T16:38:55.596Z,8.93
2023-10-18T16:41:22.696Z,9.37
2023-10-18T16:43:52.596Z,8.20
2023-10-18T16:46:21.568Z,7.23
2023-10-18T16:48:51.027Z,7.97
2023-10-18T16:51:18.511Z,8.37
2023-10-18T16:53:48.772Z,9.60
2023-10-18T16:56:17.006Z,9.30
2023-10-18T16:58:44.149Z,9.33
2023-10-18T17:01:18.907Z,8.93
2023-10-18T17:03:49.125Z,8.40
2023-10-18T17:06:17.494Z,8.10
2023-10-18T17:08:46.501Z,9.73
2023-10-18T17:11:15.533Z,9.30
2023-10-18T17:13:48.315Z,7.80
2023-10-18T17:16:16.065Z,8.00
2023-10-18T17:18:44.226Z,7.67
2023-10-18T17:21:19.880Z,7.13
2023-10-18T17:23:52.452Z,8.03
2023-10-18T17:26:19.552Z,7.80
2023-10-18T17:28:48.116Z,8.50
2023-10-18T17:31:21.604Z,9.00
2023-10-18T17:33:49.046Z,9.83
2023-10-18T17:36:19.896Z,8.93
2023-10-18T17:38:47.950Z,10.10
2023-10-18T17:41:15.706Z,8.53
2023-10-18T17:43:42.733Z,7.77
2023-10-18T17:46:09.860Z,9.90
2023-10-18T17:48:36.822Z,12.23
2023-10-18T17:51:16.485Z,11.27
2023-10-18T17:53:43.585Z,9.80
2023-10-18T17:56:13.890Z,11.73
2023-10-18T17:58:42.682Z,9.93
2023-10-18T18:01:21.867Z,10.50
2023-10-18T18:03:53.566Z,8.63
2023-10-18T18:06:21.504Z,8.77
2023-10-18T18:08:48.428Z,7.13
2023-10-18T18:11:15.391Z,7.00
2023-10-18T18:13:47.432Z,7.17
2023-10-18T18:16:15.435Z,7.47
2023-10-18T18:18:44.844Z,8.83
2023-10-18T18:21:13.782Z,9.73
2023-10-18T18:23:41.313Z,10.20
2023-10-18T18:26:14.236Z,7.53
2023-10-18T18:28:42.219Z,7.60
2023-10-18T18:31:09.654Z,7.73
2023-10-18T18:33:41.697Z,7.00
2023-10-18T18:36:09.029Z,7.40
2023-10-18T18:38:35.896Z,7.73
2023-10-18T18:41:03.835Z,8.20
2023-10-18T18:43:30.685Z,8.20
2023-10-18T18:46:00.721Z,7.50
2023-10-18T18:48:27.640Z,7.50
2023-10-18T18:50:55.936Z,7.43
2023-10-18T18:53:23.396Z,6.77
2023-10-18T18:55:50.374Z,8.20
2023-10-18T18:58:17.216Z,7.73
2023-10-18T19:00:44.165Z,8.30
2023-10-18T19:03:11.153Z,7.43
2023-10-18T19:05:38.150Z,8.10
2023-10-18T19:08:08.012Z,7.20
2023-10-18T19:10:36.158Z,6.80
2023-10-18T19:13:03.059Z,7.83
2023-10-18T19:15:30.456Z,7.57
2023-10-18T19:17:57.369Z,7.00
2023-10-18T19:20:26.448Z,7.03
2023-10-18T19:22:55.402Z,7.30
2023-10-18T19:25:22.455Z,6.50
2023-10-18T19:27:49.555Z,6.40
2023-10-18T19:30:21.378Z,6.70
2023-10-18T19:32:48.527Z,6.80
2023-10-18T19:35:16.312Z,6.77
2023-10-18T19:37:43.467Z,5.80
2023-10-18T19:40:14.678Z,6.13
2023-10-18T19:42:42.386Z,5.73
2023-10-18T19:45:11.891Z,5.60
2023-10-18T19:47:38.940Z,5.27
2023-10-18T19:50:07.792Z,5.23
2023-10-18T19:52:35.093Z,5.77
2023-10-18T19:55:02.192Z,6.13
2023-10-18T19:57:29.161Z,5.53
2023-10-18T19:59:56.100Z,5.50
2023-10-18T20:02:23.610Z,5.43
2023-10-18T20:04:50.558Z,5.40
2023-10-18T20:07:17.393Z,5.40
2023-10-18T20:09:45.184Z,5.63
2023-10-18T20:12:12.407Z,5.40
2023-10-18T20:14:39.637Z,5.90
2023-10-18T20:17:06.965Z,5.60
2023-10-18T20:19:34.238Z,5.80
2023-10-18T20:22:01.411Z,6.07
2023-10-18T20:24:28.359Z,6.13
2023-10-18T20:26:55.223Z,6.40
2023-10-18T20:29:22.420Z,6.10
2023-10-18T20:31:53.158Z,6.60
2023-10-18T20:34:20.714Z,8.70
2023-10-18T20:36:47.763Z,7.27
2023-10-18T20:39:18.443Z,7.07
2023-10-18T20:41:45.767Z,5.93
2023-10-18T20:44:28.428Z,6.00
2023-10-18T20:46:57.143Z,5.20
2023-10-18T20:49:29.650Z,5.70
2023-10-18T20:51:58.562Z,5.47
2023-10-18T20:54:34.175Z,4.93
2023-10-18T20:57:12.256Z,5.27
2023-10-18T20:59:46.243Z,5.40
2023-10-18T21:02:18.390Z,5.10
2023-10-18T21:04:49.025Z,5.40
2023-10-18T21:07:25.747Z,4.93
2023-10-18T21:09:54.040Z,5.03
2023-10-18T21:12:22.181Z,4.73
2023-10-18T21:14:49.793Z,5.63
2023-10-18T21:17:16.799Z,4.87
2023-10-18T21:19:44.451Z,4.83
2023-10-18T21:22:11.422Z,4.50
2023-10-18T21:24:38.228Z,5.07
2023-10-18T21:27:05.104Z,5.07
2023-10-18T21:29:31.920Z,5.00
2023-10-18T21:31:59.114Z,5.50
2023-10-18T21:34:26.503Z,5.43
2023-10-18T21:36:53.540Z,5.97
2023-10-18T21:39:25.251Z,5.87
2023-10-18T21:41:52.081Z,6.63
2023-10-18T21:44:19.057Z,5.87
2023-10-18T21:46:46.952Z,5.40
2023-10-18T21:49:13.899Z,5.80
2023-10-18T21:51:41.649Z,5.80
2023-10-18T21:54:08.413Z,6.37
2023-10-18T21:56:35.231Z,6.00
2023-10-18T21:59:02.272Z,5.63
2023-10-18T22:01:49.448Z,5.67
2023-10-18T22:04:16.891Z,5.63
2023-10-18T22:06:44.017Z,5.07
2023-10-18T22:09:37.308Z,4.87
2023-10-18T22:12:04.706Z,5.10
2023-10-18T22:14:31.970Z,4.87
2023-10-18T22:17:06.553Z,4.63
2023-10-18T22:19:34.241Z,4.63
2023-10-18T22:22:24.509Z,4.80
2023-10-18T22:24:51.824Z,5.20
2023-10-18T22:27:19.183Z,5.43
2023-10-18T22:29:49.988Z,5.40
2023-10-18T22:32:25.599Z,5.90
2023-10-18T22:34:54.013Z,6.00
2023-10-18T22:37:22.030Z,5.27
2023-10-18T22:39:51.949Z,6.00
2023-10-18T22:42:24.184Z,5.90
2023-10-18T22:45:11.035Z,5.83
2023-10-18T22:47:41.510Z,5.57
2023-10-18T22:50:22.626Z,6.07
2023-10-18T22:52:55.440Z,6.07
2023-10-18T22:55:24.262Z,6.40
2023-10-18T22:57:56.068Z,6.77
2023-10-18T23:00:35.124Z,6.53
2023-10-18T23:03:05.850Z,7.00
2023-10-18T23:05:33.082Z,6.40
2023-10-18T23:08:00.864Z,7.00
2023-10-18T23:10:48.155Z,6.57
2023-10-18T23:13:31.716Z,6.67
2023-10-18T23:16:00.666Z,5.97
2023-10-18T23:18:35.694Z,6.17
2023-10-18T23:21:13.041Z,6.13
2023-10-18T23:23:55.502Z,7.17
2023-10-18T23:26:42.434Z,6.27
2023-10-18T23:29:16.292Z,6.70
2023-10-18T23:31:45.869Z,6.50
2023-10-18T23:34:25.692Z,6.30
2023-10-18T23:37:19.889Z,6.17
2023-10-18T23:39:55.832Z,6.23
2023-10-18T23:42:34.684Z,6.33
2023-10-18T23:45:04.305Z,6.30
2023-10-18T23:47:51.139Z,6.27
2023-10-18T23:50:18.517Z,6.53
2023-10-18T23:53:04.959Z,6.70
2023-10-18T23:55:41.013Z,6.90
2023-10-18T23:58:15.536Z,7.20
